createdAt,value
2022-07-29T00:01:51.392Z,24.73
2022-07-29T00:04:21.457Z,24.78
2022-07-29T00:09:22.063Z,24.65
2022-07-29T00:11:50.597Z,24.57
2022-07-29T00:14:25.608Z,24.63
2022-07-29T00:16:57.691Z,24.43
2022-07-29T00:19:25.558Z,24.64
2022-07-29T00:21:59.072Z,24.63
2022-07-29T00:24:27.394Z,24.47
2022-07-29T00:26:55.197Z,24.49
2022-07-29T00:29:38.398Z,24.48
2022-07-29T00:32:07.677Z,24.49
2022-07-29T00:34:36.741Z,24.38
2022-07-29T00:37:09.868Z,24.37
2022-07-29T00:42:09.387Z,24.31
2022-07-29T00:44:40.953Z,24.40
2022-07-29T00:47:11.939Z,23.76
2022-07-29T00:49:42.937Z,23.99
2022-07-29T00:52:17.045Z,24.26
2022-07-29T00:54:45.635Z,24.12
2022-07-29T00:57:17.008Z,24.37
2022-07-29T00:59:51.776Z,24.32
2022-07-29T01:02:23.393Z,24.24
2022-07-29T01:04:54.785Z,24.38
2022-07-29T01:10:00.265Z,23.69
2022-07-29T01:12:36.884Z,23.51
2022-07-29T01:15:09.619Z,23.68
2022-07-29T01:17:52.486Z,23.25
2022-07-29T01:23:29.118Z,24.42
2022-07-29T01:26:14.818Z,24.17
2022-07-29T01:29:07.604Z,24.11
2022-07-29T01:31:58.508Z,23.94
2022-07-29T01:34:31.858Z,23.76
2022-07-29T01:37:08.083Z,23.83
2022-07-29T01:39:45.787Z,23.82
2022-07-29T01:42:25.968Z,23.89
2022-07-29T01:47:41.997Z,23.85
2022-07-29T01:50:12.055Z,23.74
2022-07-29T01:52:46.765Z,23.71
2022-07-29T01:55:18.020Z,23.77
2022-07-29T01:57:49.284Z,23.56
2022-07-29T02:00:23.941Z,22.82
2022-07-29T02:02:57.239Z,22.64
2022-07-29T02:05:26.142Z,22.75
2022-07-29T02:07:55.748Z,22.64
2022-07-29T02:10:28.358Z,22.61
2022-07-29T02:13:00.245Z,22.95
2022-07-29T02:15:33.962Z,22.78
2022-07-29T02:18:06.414Z,22.82
2022-07-29T02:20:38.988Z,23.01
2022-07-29T02:23:09.224Z,23.04
2022-07-29T02:30:49.045Z,22.99
2022-07-29T02:33:18.900Z,22.95
2022-07-29T02:38:38.735Z,22.80
2022-07-29T02:41:12.045Z,22.75
2022-07-29T02:43:42.755Z,22.66
2022-07-29T02:46:29.516Z,22.49
2022-07-29T02:49:06.313Z,23.10
2022-07-29T02:51:45.872Z,22.87
2022-07-29T02:54:17.307Z,22.43
2022-07-29T02:56:49.607Z,22.46
2022-07-29T02:59:21.032Z,22.32
2022-07-29T03:01:49.961Z,22.20
2022-07-29T03:06:56.576Z,22.88
2022-07-29T03:09:29.704Z,22.79
2022-07-29T03:11:59.244Z,22.81
2022-07-29T03:14:30.087Z,22.82
2022-07-29T03:17:01.181Z,22.98
2022-07-29T03:21:58.675Z,22.11
2022-07-29T03:24:29.882Z,22.00
2022-07-29T03:26:59.072Z,22.66
2022-07-29T03:29:33.884Z,22.37
2022-07-29T03:32:08.573Z,22.07
2022-07-29T03:34:39.830Z,22.23
2022-07-29T03:37:11.191Z,22.42
2022-07-29T03:39:43.347Z,22.78
2022-07-29T03:42:15.262Z,21.82
2022-07-29T03:44:47.991Z,21.52
2022-07-29T03:47:17.223Z,21.55
2022-07-29T03:49:50.216Z,22.09
2022-07-29T03:57:35.157Z,21.50
2022-07-29T04:00:08.029Z,21.43
2022-07-29T04:02:37.331Z,21.29
2022-07-29T04:05:05.936Z,21.35
2022-07-29T04:07:33.978Z,21.32
2022-07-29T04:12:43.719Z,21.67
2022-07-29T04:15:14.468Z,21.62
2022-07-29T04:17:44.957Z,22.54
2022-07-29T04:20:16.385Z,22.32
2022-07-29T04:22:44.243Z,22.03
2022-07-29T04:25:15.216Z,21.94
2022-07-29T04:30:32.258Z,22.28
2022-07-29T04:33:02.172Z,22.55
2022-07-29T04:35:38.413Z,22.56
2022-07-29T04:38:15.919Z,22.47
2022-07-29T04:40:45.127Z,22.58
2022-07-29T04:43:15.987Z,23.01
2022-07-29T04:45:45.903Z,22.96
2022-07-29T04:48:14.476Z,22.67
2022-07-29T04:50:44.028Z,22.65
2022-07-29T04:53:12.874Z,22.71
2022-07-29T04:55:45.967Z,22.58
2022-07-29T04:58:13.819Z,22.78
2022-07-29T05:00:42.663Z,23.32
2022-07-29T05:03:18.249Z,23.12
2022-07-29T05:05:52.986Z,23.40
2022-07-29T05:08:21.660Z,23.33
2022-07-29T05:10:49.594Z,23.41
2022-07-29T05:13:17.714Z,23.22
2022-07-29T05:15:45.869Z,23.10
2022-07-29T05:18:15.706Z,23.12
2022-07-29T05:20:44.240Z,23.60
2022-07-29T05:23:14.194Z,23.30
2022-07-29T05:25:45.214Z,23.26
2022-07-29T05:28:13.609Z,23.58
2022-07-29T05:30:41.554Z,24.29
2022-07-29T05:33:34.737Z,23.73
2022-07-29T05:36:03.626Z,23.82
2022-07-29T05:38:33.812Z,24.02
2022-07-29T05:41:05.039Z,24.17
2022-07-29T05:43:36.153Z,24.78
2022-07-29T05:46:04.641Z,24.71
2022-07-29T05:48:32.596Z,24.74
2022-07-29T05:51:00.292Z,24.66
2022-07-29T05:53:33.172Z,24.90
2022-07-29T05:56:04.738Z,24.60
2022-07-29T05:58:33.784Z,24.34
2022-07-29T06:01:05.224Z,24.51
2022-07-29T06:03:34.369Z,25.43
2022-07-29T06:06:02.128Z,24.77
2022-07-29T06:08:35.001Z,24.76
2022-07-29T06:13:33.655Z,25.58
2022-07-29T06:16:04.414Z,25.00
2022-07-29T06:18:32.801Z,25.11
2022-07-29T06:21:01.191Z,25.35
2022-07-29T06:23:29.007Z,25.57
2022-07-29T06:26:00.284Z,25.43
2022-07-29T06:28:29.555Z,25.59
2022-07-29T06:30:57.948Z,25.63
2022-07-29T06:33:27.221Z,25.89
2022-07-29T06:35:55.957Z,25.74
2022-07-29T06:38:30.703Z,25.73
2022-07-29T06:46:07.622Z,26.77
2022-07-29T06:48:37.504Z,26.23
2022-07-29T06:51:09.995Z,26.36
2022-07-29T06:54:00.462Z,26.37
2022-07-29T06:56:29.583Z,26.48
2022-07-29T06:58:59.901Z,26.78
2022-07-29T07:01:29.553Z,27.09
2022-07-29T07:04:01.382Z,26.98
2022-07-29T07:09:04.082Z,27.30
2022-07-29T07:11:36.449Z,27.33
2022-07-29T07:14:05.874Z,27.32
2022-07-29T07:16:34.424Z,27.36
2022-07-29T07:19:05.605Z,27.67
2022-07-29T07:21:34.472Z,27.88
2022-07-29T07:24:04.899Z,28.07
2022-07-29T07:26:32.815Z,27.94
2022-07-29T07:29:01.697Z,27.89
2022-07-29T07:31:32.389Z,28.29
2022-07-29T07:34:00.610Z,28.33
2022-07-29T07:36:29.058Z,28.99
2022-07-29T07:38:57.503Z,29.02
2022-07-29T07:41:26.526Z,29.25
2022-07-29T07:44:00.782Z,28.86
2022-07-29T07:46:28.877Z,28.72
2022-07-29T07:48:58.665Z,28.84
2022-07-29T07:51:28.288Z,28.92
2022-07-29T07:53:59.365Z,28.82
2022-07-29T07:56:30.726Z,28.90
2022-07-29T07:59:02.742Z,28.97
2022-07-29T08:01:31.065Z,29.19
2022-07-29T08:04:27.106Z,29.33
2022-07-29T08:06:59.581Z,29.23
2022-07-29T08:09:30.404Z,29.31
2022-07-29T08:12:07.083Z,29.45
2022-07-29T08:14:38.588Z,29.33
2022-07-29T08:17:06.876Z,29.56
2022-07-29T08:19:37.898Z,29.82
2022-07-29T08:22:05.725Z,30.10
2022-07-29T08:24:48.613Z,30.17
2022-07-29T08:27:41.743Z,31.34
2022-07-29T08:30:07.171Z,31.48
2022-07-29T08:35:30.970Z,30.77
2022-07-29T08:38:05.982Z,30.75
2022-07-29T08:40:33.962Z,30.97
2022-07-29T08:43:07.252Z,31.24
2022-07-29T08:45:42.536Z,31.70
2022-07-29T08:48:16.880Z,31.46
2022-07-29T08:50:51.685Z,31.56
2022-07-29T08:53:21.141Z,31.64
2022-07-29T08:55:51.063Z,31.69
2022-07-29T08:58:22.970Z,31.84
2022-07-29T09:00:52.542Z,32.29
2022-07-29T09:03:24.120Z,31.75
2022-07-29T09:05:54.670Z,31.81
2022-07-29T09:08:22.899Z,32.73
2022-07-29T09:10:52.192Z,32.31
2022-07-29T09:13:20.684Z,31.16
2022-07-29T09:15:48.710Z,30.96
2022-07-29T09:18:38.134Z,30.91
2022-07-29T09:21:27.734Z,30.72
2022-07-29T09:24:15.863Z,30.80
2022-07-29T09:26:47.981Z,31.46
2022-07-29T09:29:17.529Z,31.30
2022-07-29T09:31:46.538Z,31.31
2022-07-29T09:34:17.123Z,31.48
2022-07-29T09:36:46.670Z,31.69
2022-07-29T09:39:17.771Z,31.28
2022-07-29T09:41:48.237Z,31.04
2022-07-29T09:44:16.443Z,31.06
2022-07-29T09:46:57.191Z,32.12
2022-07-29T09:49:26.337Z,32.24
2022-07-29T09:52:07.217Z,32.30
2022-07-29T09:54:38.890Z,32.63
2022-07-29T09:57:25.235Z,32.90
2022-07-29T09:59:59.567Z,33.09
2022-07-29T10:02:31.970Z,33.45
2022-07-29T10:05:02.346Z,33.65
2022-07-29T10:07:53.515Z,33.85
2022-07-29T10:10:28.305Z,33.85
2022-07-29T10:12:59.742Z,33.81
2022-07-29T10:15:33.200Z,33.84
2022-07-29T10:20:30.012Z,33.91
2022-07-29T10:23:00.904Z,33.59
2022-07-29T10:25:31.025Z,33.74
2022-07-29T10:28:02.797Z,33.53
2022-07-29T10:30:31.211Z,33.55
2022-07-29T10:33:18.583Z,33.69
2022-07-29T10:36:03.235Z,32.84
2022-07-29T10:38:50.815Z,32.75
2022-07-29T10:41:44.273Z,33.33
2022-07-29T10:44:23.198Z,33.56
2022-07-29T10:46:55.118Z,33.80
2022-07-29T10:52:05.969Z,33.96
2022-07-29T10:54:55.116Z,33.96
2022-07-29T10:57:53.692Z,34.14
2022-07-29T11:00:33.658Z,33.23
2022-07-29T11:03:10.518Z,32.69
2022-07-29T11:05:59.945Z,32.63
2022-07-29T11:08:29.114Z,33.16
2022-07-29T11:11:38.593Z,33.56
2022-07-29T11:14:10.307Z,33.64
2022-07-29T11:17:16.320Z,33.93
2022-07-29T11:19:51.940Z,34.23
2022-07-29T11:22:34.598Z,33.61
2022-07-29T11:27:47.030Z,33.69
2022-07-29T11:30:16.685Z,33.90
2022-07-29T11:32:50.355Z,33.99
2022-07-29T11:35:38.452Z,34.23
2022-07-29T11:38:32.280Z,34.41
2022-07-29T11:41:25.979Z,34.56
2022-07-29T11:43:56.325Z,34.44
2022-07-29T11:46:50.250Z,34.40
2022-07-29T11:49:31.992Z,35.41
2022-07-29T11:52:13.094Z,34.61
2022-07-29T11:54:58.064Z,34.43
2022-07-29T11:57:37.191Z,34.90
2022-07-29T12:00:14.421Z,34.50
2022-07-29T12:02:48.446Z,34.16
2022-07-29T12:05:35.997Z,34.09
2022-07-29T12:08:18.757Z,34.31
2022-07-29T12:10:52.501Z,35.23
2022-07-29T12:13:37.841Z,35.23
2022-07-29T12:16:07.484Z,34.73
2022-07-29T12:18:38.445Z,34.96
2022-07-29T12:21:09.648Z,35.05
2022-07-29T12:23:54.947Z,35.23
2022-07-29T12:26:26.604Z,35.50
2022-07-29T12:28:56.710Z,35.79
2022-07-29T12:31:42.451Z,36.01
2022-07-29T12:34:14.702Z,35.75
2022-07-29T12:36:46.363Z,35.70
2022-07-29T12:39:17.030Z,35.55
2022-07-29T12:41:47.390Z,35.65
2022-07-29T12:44:18.038Z,35.75
2022-07-29T12:46:49.032Z,35.73
2022-07-29T12:49:20.515Z,35.54
2022-07-29T12:51:48.790Z,35.53
2022-07-29T12:54:18.148Z,35.45
2022-07-29T12:56:46.995Z,35.30
2022-07-29T12:59:20.821Z,35.22
2022-07-29T13:01:52.395Z,34.85
2022-07-29T13:04:28.203Z,34.66
2022-07-29T13:07:05.777Z,34.56
2022-07-29T13:09:42.149Z,34.38
2022-07-29T13:12:12.269Z,34.20
2022-07-29T13:14:48.617Z,33.87
2022-07-29T13:17:18.227Z,33.76
2022-07-29T13:19:52.695Z,33.71
2022-07-29T13:22:25.210Z,33.73
2022-07-29T13:24:54.574Z,33.69
2022-07-29T13:27:24.402Z,33.42
2022-07-29T13:29:58.949Z,33.51
2022-07-29T13:32:29.469Z,33.48
2022-07-29T13:34:57.730Z,33.70
2022-07-29T13:37:27.358Z,33.70
2022-07-29T13:39:57.202Z,33.47
2022-07-29T13:42:28.435Z,33.48
2022-07-29T13:47:32.257Z,33.52
2022-07-29T13:50:03.096Z,33.46
2022-07-29T13:52:31.066Z,33.32
2022-07-29T13:55:02.593Z,33.55
2022-07-29T13:57:31.284Z,33.45
2022-07-29T14:00:01.104Z,33.33
2022-07-29T14:02:30.010Z,33.26
2022-07-29T14:04:58.785Z,33.17
2022-07-29T14:07:29.616Z,33.02
2022-07-29T14:09:58.395Z,32.95
2022-07-29T14:12:26.613Z,32.90
2022-07-29T14:14:54.619Z,32.92
2022-07-29T14:17:24.913Z,32.94
2022-07-29T14:22:22.326Z,33.15
2022-07-29T14:24:54.107Z,32.70
2022-07-29T14:27:37.519Z,32.69
2022-07-29T14:30:08.190Z,32.85
2022-07-29T14:32:38.447Z,32.97
2022-07-29T14:35:07.673Z,33.03
2022-07-29T14:37:39.358Z,33.06
2022-07-29T14:40:10.528Z,33.07
2022-07-29T14:42:39.130Z,33.09
2022-07-29T14:45:09.377Z,33.04
2022-07-29T14:47:40.799Z,33.03
2022-07-29T14:50:12.165Z,33.05
2022-07-29T14:52:40.600Z,33.05
2022-07-29T14:55:19.623Z,33.13
2022-07-29T14:57:49.403Z,33.39
2022-07-29T15:00:18.402Z,33.52
2022-07-29T15:03:04.513Z,33.63
2022-07-29T15:05:37.505Z,33.60
2022-07-29T15:08:05.840Z,33.58
2022-07-29T15:10:34.199Z,33.67
2022-07-29T15:13:02.493Z,33.51
2022-07-29T15:15:30.633Z,33.49
2022-07-29T15:18:01.416Z,33.40
2022-07-29T15:20:29.841Z,33.72
2022-07-29T15:22:58.155Z,33.85
2022-07-29T15:25:27.942Z,33.81
2022-07-29T15:28:01.213Z,33.83
2022-07-29T15:30:33.291Z,33.85
2022-07-29T15:35:39.986Z,34.02
2022-07-29T15:38:10.548Z,34.15
2022-07-29T15:43:11.830Z,34.36
2022-07-29T15:45:41.440Z,34.10
2022-07-29T15:48:14.531Z,33.90
2022-07-29T15:50:43.003Z,33.81
2022-07-29T15:53:15.601Z,33.98
2022-07-29T15:55:44.482Z,33.74
2022-07-29T15:58:12.910Z,33.59
2022-07-29T16:00:41.729Z,33.56
2022-07-29T16:03:11.425Z,33.64
2022-07-29T16:05:42.480Z,33.90
2022-07-29T16:08:11.164Z,34.04
2022-07-29T16:10:39.291Z,34.04
2022-07-29T16:13:07.722Z,34.21
2022-07-29T16:15:36.184Z,34.36
2022-07-29T16:18:04.424Z,34.42
2022-07-29T16:20:33.948Z,34.45
2022-07-29T16:23:04.994Z,34.50
2022-07-29T16:25:57.418Z,34.54
2022-07-29T16:28:21.529Z,34.53
2022-07-29T16:30:51.597Z,34.48
2022-07-29T16:33:19.706Z,34.51
2022-07-29T16:35:50.659Z,34.44
2022-07-29T16:38:19.360Z,34.29
2022-07-29T16:40:47.515Z,34.21
2022-07-29T16:43:16.371Z,34.17
2022-07-29T16:45:47.787Z,34.14
2022-07-29T16:48:18.136Z,34.14
2022-07-29T16:50:46.899Z,34.23
2022-07-29T16:53:17.090Z,34.42
2022-07-29T16:55:45.604Z,34.43
2022-07-29T16:58:14.795Z,35.14
2022-07-29T17:00:43.038Z,34.30
2022-07-29T17:03:11.144Z,34.16
2022-07-29T17:05:52.038Z,33.86
2022-07-29T17:10:57.743Z,33.63
2022-07-29T17:13:27.195Z,33.58
2022-07-29T17:16:00.646Z,33.71
2022-07-29T17:18:29.255Z,33.60
2022-07-29T17:20:57.205Z,33.40
2022-07-29T17:25:58.253Z,32.99
2022-07-29T17:28:26.449Z,32.86
2022-07-29T17:30:54.627Z,32.78
2022-07-29T17:33:24.715Z,32.68
2022-07-29T17:36:11.320Z,32.62
2022-07-29T17:38:41.955Z,32.62
2022-07-29T17:41:10.299Z,32.48
2022-07-29T17:43:38.166Z,32.36
2022-07-29T17:46:08.777Z,31.94
2022-07-29T17:48:38.275Z,31.82
2022-07-29T17:51:06.376Z,31.71
2022-07-29T17:53:34.659Z,31.65
2022-07-29T17:56:08.683Z,31.62
2022-07-29T17:58:36.896Z,31.48
2022-07-29T18:01:05.201Z,31.48
2022-07-29T18:03:34.573Z,31.44
2022-07-29T18:06:06.337Z,31.43
2022-07-29T18:08:35.023Z,31.32
2022-07-29T18:11:04.310Z,31.16
2022-07-29T18:13:35.468Z,31.48
2022-07-29T18:16:03.934Z,31.96
2022-07-29T18:18:32.019Z,30.90
2022-07-29T18:21:01.502Z,32.33
2022-07-29T18:23:29.327Z,31.96
2022-07-29T18:25:57.232Z,30.47
2022-07-29T18:28:25.470Z,30.13
2022-07-29T18:30:56.802Z,30.22
2022-07-29T18:33:28.994Z,29.82
2022-07-29T18:36:06.126Z,29.82
2022-07-29T18:38:39.711Z,29.90
2022-07-29T18:41:08.270Z,29.79
2022-07-29T18:43:36.216Z,29.66
2022-07-29T18:46:07.150Z,29.71
2022-07-29T18:48:35.519Z,29.60
2022-07-29T18:51:09.236Z,29.67
2022-07-29T18:53:38.733Z,29.37
2022-07-29T18:56:09.844Z,29.22
2022-07-29T18:58:42.273Z,29.92
2022-07-29T19:03:46.150Z,29.95
2022-07-29T19:06:15.542Z,29.86
2022-07-29T19:08:43.695Z,29.71
2022-07-29T19:11:15.395Z,29.70
2022-07-29T19:13:43.805Z,29.68
2022-07-29T19:16:15.765Z,29.48
2022-07-29T19:18:48.715Z,29.60
2022-07-29T19:21:21.509Z,28.90
2022-07-29T19:24:01.696Z,28.50
2022-07-29T19:26:44.379Z,28.56
2022-07-29T19:29:12.688Z,28.58
2022-07-29T19:31:41.477Z,28.83
2022-07-29T19:34:12.615Z,28.76
2022-07-29T19:36:43.074Z,28.67
2022-07-29T19:39:11.879Z,28.60
2022-07-29T19:41:40.908Z,28.60
2022-07-29T19:44:08.975Z,28.60
2022-07-29T19:46:40.621Z,28.34
2022-07-29T19:49:10.873Z,28.91
2022-07-29T19:51:45.468Z,28.54
2022-07-29T19:54:14.828Z,28.24
2022-07-29T19:56:46.296Z,28.18
2022-07-29T19:59:14.157Z,28.37
2022-07-29T20:01:44.134Z,28.28
2022-07-29T20:04:15.695Z,28.19
2022-07-29T20:09:20.442Z,28.15
2022-07-29T20:11:52.062Z,28.15
2022-07-29T20:14:26.624Z,28.25
2022-07-29T20:19:39.904Z,28.20
2022-07-29T20:24:38.915Z,28.02
2022-07-29T20:27:06.940Z,28.02
2022-07-29T20:29:42.894Z,28.00
2022-07-29T20:32:12.868Z,27.87
2022-07-29T20:34:42.322Z,27.88
2022-07-29T20:37:11.819Z,27.74
2022-07-29T20:39:39.923Z,27.70
2022-07-29T20:42:08.966Z,28.23
2022-07-29T20:44:37.537Z,27.92
2022-07-29T20:47:05.781Z,27.48
2022-07-29T20:49:37.006Z,27.51
2022-07-29T20:52:10.637Z,27.43
2022-07-29T20:54:43.050Z,27.23
2022-07-29T20:57:16.682Z,27.16
2022-07-29T20:59:45.876Z,27.05
2022-07-29T21:02:14.511Z,26.87
2022-07-29T21:04:44.055Z,27.07
2022-07-29T21:07:13.954Z,27.38
2022-07-29T21:09:42.670Z,27.34
2022-07-29T21:12:11.640Z,27.09
2022-07-29T21:14:39.595Z,27.04
2022-07-29T21:17:08.601Z,27.10
2022-07-29T21:19:37.277Z,27.12
2022-07-29T21:22:08.985Z,27.09
2022-07-29T21:24:40.411Z,27.07
2022-07-29T21:27:27.297Z,26.70
2022-07-29T21:29:56.367Z,26.69
2022-07-29T21:32:31.042Z,26.58
2022-07-29T21:34:59.977Z,26.54
2022-07-29T21:37:28.611Z,26.48
2022-07-29T21:39:58.194Z,26.67
2022-07-29T21:42:25.986Z,26.69
2022-07-29T21:44:54.962Z,26.69
2022-07-29T21:47:23.166Z,26.65
2022-07-29T21:49:52.109Z,26.57
2022-07-29T21:54:51.064Z,26.59
2022-07-29T21:57:21.514Z,26.70
2022-07-29T21:59:53.971Z,26.59
2022-07-29T22:02:23.257Z,26.54
2022-07-29T22:04:52.035Z,26.35
2022-07-29T22:07:20.157Z,26.22
2022-07-29T22:09:48.119Z,26.34
2022-07-29T22:12:16.596Z,26.45
2022-07-29T22:14:50.182Z,26.40
2022-07-29T22:17:21.961Z,26.70
2022-07-29T22:19:49.860Z,25.88
2022-07-29T22:22:19.270Z,25.86
2022-07-29T22:27:20.170Z,25.68
2022-07-29T22:29:51.108Z,25.68
2022-07-29T22:32:18.797Z,25.33
2022-07-29T22:34:47.140Z,26.10
2022-07-29T22:37:15.660Z,25.99
2022-07-29T22:39:43.590Z,25.87
2022-07-29T22:42:11.747Z,25.83
2022-07-29T22:44:40.010Z,26.60
2022-07-29T22:47:14.105Z,26.15
2022-07-29T22:49:43.016Z,25.83
2022-07-29T22:52:11.481Z,25.75
2022-07-29T22:54:42.549Z,25.78
2022-07-29T22:57:10.722Z,25.81
2022-07-29T22:59:38.771Z,26.11
2022-07-29T23:02:07.325Z,26.07
2022-07-29T23:04:38.001Z,26.40
2022-07-29T23:07:08.181Z,26.64
2022-07-29T23:09:36.759Z,25.77
2022-07-29T23:12:04.991Z,25.67
2022-07-29T23:14:33.125Z,25.53
2022-07-29T23:17:03.003Z,25.48
2022-07-29T23:19:32.187Z,25.33
2022-07-29T23:22:00.018Z,25.44
2022-07-29T23:24:31.510Z,25.79
2022-07-29T23:26:59.216Z,25.42
2022-07-29T23:29:28.325Z,26.10
2022-07-29T23:34:25.652Z,26.20
2022-07-29T23:36:53.490Z,26.37
2022-07-29T23:39:21.691Z,26.18
2022-07-29T23:41:53.402Z,26.16
2022-07-29T23:44:23.218Z,26.28
2022-07-29T23:49:21.754Z,25.41
2022-07-29T23:51:49.601Z,25.43
2022-07-29T23:54:18.061Z,25.32
2022-07-29T23:56:46.486Z,25.71
2022-07-29T23:59:14.643Z,25.27
